Time;durP1;ratioP1;P1;durP2;ratioP2;P2;SDS_P1;SDS_P2;PMS_P1;PMS_P2;Temp;Humidity;BMP_temperature;BMP_pressure;BME280_temperature;BME280_humidity;BME280_pressure;Samples;Min_cycle;Max_cycle;Signal;HPM_P1;HPM_P2
2022/07/29 00:00:21;;;;;;;7.57;3.30;;;18.10;78.00;;;;;;5034385;28;20462;-46
2022/07/29 00:02:47;;;;;;;10.50;3.13;;;18.20;78.80;;;;;;5034756;28;20487;-47
2022/07/29 00:05:14;;;;;;;5.27;3.30;;;18.20;78.70;;;;;;5034879;28;20449;-47
2022/07/29 00:07:41;;;;;;;5.27;3.90;;;18.20;79.10;;;;;;5034706;28;20485;-47
2022/07/29 00:10:08;;;;;;;7.53;3.53;;;18.20;79.20;;;;;;5033166;28;20521;-47
2022/07/29 00:12:36;;;;;;;5.50;3.80;;;18.00;79.30;;;;;;5034583;28;20465;-46
2022/07/29 00:15:04;;;;;;;6.23;4.30;;;18.00;79.60;;;;;;5034604;28;20966;-45
2022/07/29 00:17:30;;;;;;;11.07;3.90;;;17.90;79.80;;;;;;5034340;28;20438;-47
2022/07/29 00:19:57;;;;;;;6.87;3.63;;;18.40;80.70;;;;;;5033984;28;20960;-46
2022/07/29 00:22:23;;;;;;;7.80;4.53;;;17.90;80.40;;;;;;5034444;28;20444;-47
2022/07/29 00:24:50;;;;;;;7.13;4.63;;;17.80;80.50;;;;;;5033838;28;20438;-47
2022/07/29 00:27:17;;;;;;;7.57;4.73;;;18.10;80.80;;;;;;5034299;28;20477;-47
2022/07/29 00:29:46;;;;;;;16.10;6.40;;;17.70;80.70;;;;;;5033849;28;20470;-47
2022/07/29 00:32:12;;;;;;;8.50;4.47;;;17.80;81.00;;;;;;5034595;28;20462;-47
2022/07/29 00:37:23;;;;;;;6.40;4.30;;;17.60;81.20;;;;;;5034288;28;20430;-46
2022/07/29 00:39:50;;;;;;;8.63;4.87;;;17.90;81.90;;;;;;5033758;28;20471;-46
2022/07/29 00:42:17;;;;;;;5.03;3.87;;;17.70;82.10;;;;;;5034137;28;20430;-46
2022/07/29 00:44:45;;;;;;;8.13;4.53;;;17.50;82.00;;;;;;5034030;28;20980;-47
2022/07/29 00:47:12;;;;;;;6.10;4.17;;;17.60;82.40;;;;;;5033882;28;20484;-47
2022/07/29 00:49:40;;;;;;;6.17;4.40;;;17.50;82.60;;;;;;5033505;28;20452;-46
2022/07/29 00:52:08;;;;;;;6.57;3.80;;;17.70;83.20;;;;;;5033732;28;20437;-46
2022/07/29 00:54:36;;;;;;;6.00;4.13;;;17.60;83.30;;;;;;5033734;28;20425;-46
2022/07/29 00:57:02;;;;;;;7.47;4.10;;;17.50;83.20;;;;;;5033632;28;20439;-47
2022/07/29 00:59:29;;;;;;;6.03;3.80;;;17.50;83.50;;;;;;5033422;28;20471;-46
2022/07/29 01:01:57;;;;;;;7.03;4.37;;;17.50;83.50;;;;;;5033666;28;20555;-46
2022/07/29 01:04:24;;;;;;;4.80;4.00;;;17.50;83.60;;;;;;5033620;28;20432;-46
2022/07/29 01:06:52;;;;;;;5.53;3.87;;;17.70;84.30;;;;;;5033513;28;20472;-46
2022/07/29 01:09:19;;;;;;;4.53;3.20;;;17.30;83.80;;;;;;5032976;28;20456;-47
2022/07/29 01:11:48;;;;;;;9.13;4.57;;;17.50;84.30;;;;;;5033391;28;20448;-47
2022/07/29 01:14:15;;;;;;;7.30;4.40;;;17.60;84.80;;;;;;5033474;28;20475;-47
2022/07/29 01:16:47;;;;;;;7.17;4.00;;;17.50;84.70;;;;;;5033509;28;20817;-47
2022/07/29 01:19:32;;;;;;;5.33;3.67;;;17.40;85.10;;;;;;5033044;28;20460;-47
2022/07/29 01:22:03;;;;;;;6.20;4.57;;;17.00;84.80;;;;;;5033186;28;20790;-47
2022/07/29 01:24:55;;;;;;;7.43;4.10;;;17.50;85.50;;;;;;5033351;28;20442;-47
2022/07/29 01:27:39;;;;;;;9.67;4.90;;;17.90;86.50;;;;;;5033178;28;20479;-48
2022/07/29 01:30:08;;;;;;;6.73;4.00;;;17.50;86.20;;;;;;5032585;28;20511;-47
2022/07/29 01:32:40;;;;;;;10.47;4.37;;;17.20;86.10;;;;;;5031728;28;20563;-47
2022/07/29 01:35:11;;;;;;;5.20;4.10;;;17.20;86.20;;;;;;5031672;28;20452;-47
2022/07/29 01:37:44;;;;;;;7.70;4.70;;;17.20;86.50;;;;;;5032346;28;20444;-47
2022/07/29 01:40:24;;;;;;;10.27;5.37;;;17.20;86.70;;;;;;5032810;28;20818;-47
2022/07/29 01:42:54;;;;;;;10.90;5.03;;;17.20;87.20;;;;;;5032901;28;20441;-47
2022/07/29 01:45:28;;;;;;;6.50;5.07;;;17.50;87.90;;;;;;5032952;28;20434;-47
2022/07/29 01:48:03;;;;;;;8.03;4.50;;;17.10;87.80;;;;;;5032723;28;20479;-47
2022/07/29 01:50:35;;;;;;;6.23;4.50;;;17.30;88.40;;;;;;5032386;28;20434;-47
2022/07/29 01:53:05;;;;;;;7.33;4.57;;;17.00;88.40;;;;;;5032695;28;20427;-47
2022/07/29 01:55:35;;;;;;;9.80;4.63;;;16.40;88.30;;;;;;5032624;28;20454;-46
2022/07/29 01:58:05;;;;;;;6.70;4.10;;;16.60;88.80;;;;;;5032706;28;20518;-46
2022/07/29 02:00:34;;;;;;;7.07;4.23;;;17.00;89.60;;;;;;5032311;28;20432;-46
2022/07/29 02:03:06;;;;;;;8.20;4.27;;;16.60;89.50;;;;;;5032417;28;20431;-46
2022/07/29 02:05:34;;;;;;;6.60;4.43;;;17.30;90.20;;;;;;5032572;28;20435;-46
2022/07/29 02:08:02;;;;;;;6.47;4.47;;;17.00;90.10;;;;;;5032300;28;20467;-46
2022/07/29 02:10:31;;;;;;;12.53;3.93;;;16.90;90.10;;;;;;5032094;28;20439;-47
2022/07/29 02:13:00;;;;;;;6.00;3.50;;;17.00;90.20;;;;;;5032364;28;20431;-46
2022/07/29 02:15:29;;;;;;;6.90;3.50;;;16.80;90.00;;;;;;5032275;28;20441;-47
2022/07/29 02:18:01;;;;;;;6.90;3.63;;;17.50;90.70;;;;;;5032189;28;20437;-46
2022/07/29 02:20:29;;;;;;;6.33;4.13;;;16.60;90.30;;;;;;5031732;28;20990;-48
2022/07/29 02:22:57;;;;;;;9.67;4.50;;;16.60;90.30;;;;;;5032161;28;20431;-47
2022/07/29 02:25:25;;;;;;;8.20;4.23;;;16.70;90.40;;;;;;5032164;28;20953;-46
2022/07/29 02:27:52;;;;;;;5.27;3.60;;;16.70;90.40;;;;;;5032099;28;20525;-46
2022/07/29 02:30:21;;;;;;;7.10;3.83;;;17.00;90.60;;;;;;5031386;28;20833;-46
2022/07/29 02:32:49;;;;;;;10.60;3.80;;;16.70;90.70;;;;;;5032087;28;20447;-47
2022/07/29 02:35:18;;;;;;;5.30;3.80;;;16.90;90.80;;;;;;5031893;28;20431;-47
2022/07/29 02:38:49;;;;;;;6.00;3.70;;;16.50;90.50;;;;;;5032025;28;20814;-46
2022/07/29 02:40:36;;;;;;;6.40;4.10;;;16.90;90.70;;;;;;5031529;28;20449;-47
2022/07/29 02:43:04;;;;;;;9.20;4.07;;;16.70;90.70;;;;;;5031975;28;20433;-47
2022/07/29 02:45:32;;;;;;;7.67;3.33;;;16.70;90.80;;;;;;5031965;28;20477;-49
2022/07/29 02:48:00;;;;;;;6.60;3.53;;;16.50;90.80;;;;;;5031751;28;20479;-47
2022/07/29 02:50:33;;;;;;;7.80;3.70;;;16.80;90.90;;;;;;5031950;28;20816;-46
2022/07/29 02:53:06;;;;;;;10.80;4.00;;;16.60;90.80;;;;;;5032115;28;20546;-47
2022/07/29 02:55:34;;;;;;;8.33;3.70;;;16.70;90.80;;;;;;5032308;28;20431;-48
2022/07/29 02:58:03;;;;;;;8.37;3.93;;;16.80;90.60;;;;;;5031629;28;20506;-47
2022/07/29 03:00:33;;;;;;;7.43;3.43;;;16.90;91.00;;;;;;5031375;28;20432;-47
2022/07/29 03:03:02;;;;;;;5.17;3.57;;;16.60;90.70;;;;;;5031694;28;20447;-46
2022/07/29 03:05:31;;;;;;;5.30;3.40;;;17.10;91.00;;;;;;5031731;28;20443;-47
2022/07/29 03:08:01;;;;;;;5.80;3.93;;;16.80;90.50;;;;;;5031564;28;20849;-47
2022/07/29 03:10:28;;;;;;;10.07;4.27;;;17.00;90.90;;;;;;5031151;28;20493;-47
2022/07/29 03:12:57;;;;;;;8.90;3.70;;;16.70;90.50;;;;;;5031765;28;20442;-47
2022/07/29 03:15:23;;;;;;;6.40;3.77;;;16.40;90.60;;;;;;5031361;28;20493;-48
2022/07/29 03:17:51;;;;;;;7.70;3.90;;;16.70;90.80;;;;;;5031504;28;20436;-48
2022/07/29 03:20:18;;;;;;;8.80;3.50;;;16.50;90.70;;;;;;5031019;28;20458;-46
2022/07/29 03:22:47;;;;;;;7.43;3.20;;;17.10;90.90;;;;;;5031313;28;20485;-46
2022/07/29 03:25:15;;;;;;;8.40;3.60;;;16.20;90.40;;;;;;5031362;28;20463;-48
2022/07/29 03:27:42;;;;;;;6.70;3.37;;;16.40;90.50;;;;;;5031445;28;20491;-47
2022/07/29 03:30:11;;;;;;;6.57;3.60;;;16.80;90.50;;;;;;5085418;22;20500;-49
2022/07/29 03:32:39;;;;;;;9.10;3.30;;;16.70;90.70;;;;;;5071563;28;20435;-49
2022/07/29 03:35:13;;;;;;;4.90;4.30;;;17.20;90.90;;;;;;5071064;28;20437;-50
2022/07/29 03:37:40;;;;;;;6.60;3.57;;;16.90;90.40;;;;;;5069892;28;20452;-49
2022/07/29 03:40:11;;;;;;;9.23;3.57;;;16.70;90.40;;;;;;5070910;28;20528;-49
2022/07/29 03:42:41;;;;;;;5.83;3.27;;;16.80;90.40;;;;;;5071151;28;20437;-49
2022/07/29 03:45:11;;;;;;;6.93;3.50;;;16.70;90.70;;;;;;5071409;28;20433;-50
2022/07/29 03:47:41;;;;;;;6.50;4.47;;;16.70;90.50;;;;;;5071011;28;20476;-50
2022/07/29 03:50:11;;;;;;;5.47;3.00;;;16.70;90.50;;;;;;5070400;28;20449;-49
2022/07/29 03:52:38;;;;;;;6.90;4.37;;;16.80;90.60;;;;;;5070898;28;20437;-49
2022/07/29 03:55:16;;;;;;;4.93;3.80;;;16.70;90.80;;;;;;5071019;28;20425;-50
2022/07/29 03:57:44;;;;;;;7.03;3.33;;;16.80;90.60;;;;;;5071213;28;20425;-49
2022/07/29 04:00:11;;;;;;;5.50;3.10;;;16.80;90.60;;;;;;5072512;28;20441;-49
2022/07/29 04:02:39;;;;;;;9.13;4.23;;;16.70;90.80;;;;;;5074566;28;20434;-49
2022/07/29 04:05:13;;;;;;;8.23;3.90;;;16.90;90.90;;;;;;5074545;28;20487;-49
2022/07/29 04:07:39;;;;;;;9.00;3.47;;;16.90;90.70;;;;;;5073441;28;21016;-49
2022/07/29 04:10:07;;;;;;;6.73;3.20;;;16.70;90.50;;;;;;5074107;28;20445;-49
2022/07/29 04:12:35;;;;;;;8.70;3.87;;;16.80;90.80;;;;;;5074690;28;20437;-50
2022/07/29 04:15:02;;;;;;;4.33;3.17;;;16.80;90.80;;;;;;5073932;28;20445;-50
2022/07/29 04:17:29;;;;;;;6.13;3.77;;;17.00;90.60;;;;;;5074005;28;20429;-50
2022/07/29 04:19:55;;;;;;;6.83;4.20;;;17.30;91.10;;;;;;5072695;28;20470;-49
2022/07/29 04:22:22;;;;;;;6.30;3.13;;;16.80;90.50;;;;;;5073013;28;20453;-49
2022/07/29 04:24:49;;;;;;;5.10;3.40;;;17.00;90.50;;;;;;5074295;28;20429;-49
2022/07/29 04:27:15;;;;;;;6.10;3.20;;;17.40;90.90;;;;;;5073938;28;20914;-49
2022/07/29 04:29:43;;;;;;;9.70;3.53;;;16.90;90.40;;;;;;5073850;28;20465;-49
2022/07/29 04:32:09;;;;;;;6.00;2.97;;;16.90;90.60;;;;;;5074127;28;20438;-49
2022/07/29 04:34:36;;;;;;;9.73;3.67;;;17.50;90.80;;;;;;5072732;28;20449;-49
2022/07/29 04:37:03;;;;;;;4.27;3.00;;;17.00;90.10;;;;;;5074496;28;20969;-49
2022/07/29 04:39:29;;;;;;;6.57;3.37;;;17.60;90.50;;;;;;5074182;28;20453;-48
2022/07/29 04:41:56;;;;;;;4.67;3.10;;;17.50;89.80;;;;;;5073785;28;20529;-48
2022/07/29 04:44:23;;;;;;;10.73;3.57;;;17.40;89.30;;;;;;5073101;28;20484;-48
2022/07/29 04:46:51;;;;;;;6.40;3.43;;;17.50;89.20;;;;;;5074322;28;20495;-49
2022/07/29 04:49:17;;;;;;;7.40;3.60;;;17.60;89.10;;;;;;5073657;28;20534;-49
2022/07/29 04:51:44;;;;;;;10.20;3.50;;;17.40;88.70;;;;;;5074090;28;20431;-49
2022/07/29 04:54:11;;;;;;;5.00;3.50;;;;;;;;;;5072833;28;20804;-49
2022/07/29 04:56:37;;;;;;;8.73;3.97;;;17.60;88.50;;;;;;5073833;28;20739;-49
2022/07/29 04:59:04;;;;;;;6.37;3.30;;;17.80;88.40;;;;;;5073550;28;20446;-49
2022/07/29 05:01:33;;;;;;;7.60;3.23;;;17.50;88.10;;;;;;5073750;28;20434;-49
2022/07/29 05:04:00;;;;;;;5.40;3.57;;;17.60;88.20;;;;;;5073469;28;20566;-49
2022/07/29 05:06:27;;;;;;;6.73;3.60;;;18.00;89.40;;;;;;5073274;28;20434;-49
2022/07/29 05:08:54;;;;;;;9.70;4.73;;;;;;;;;;5072565;28;20492;-49
2022/07/29 05:11:21;;;;;;;5.13;3.17;;;17.90;88.60;;;;;;5071926;28;20451;-49
2022/07/29 05:13:47;;;;;;;9.87;4.63;;;17.70;88.20;;;;;;5073145;28;20441;-49
2022/07/29 05:16:14;;;;;;;4.73;3.07;;;17.60;87.90;;;;;;5073137;28;20438;-49
2022/07/29 05:18:41;;;;;;;6.83;3.73;;;18.00;88.00;;;;;;5072576;28;20454;-49
2022/07/29 05:21:09;;;;;;;6.33;3.87;;;17.90;88.20;;;;;;5073060;28;20435;-49
2022/07/29 05:23:36;;;;;;;7.50;3.63;;;18.10;87.40;;;;;;5072942;28;20446;-49
2022/07/29 05:26:21;;;;;;;8.13;3.73;;;18.50;88.20;;;;;;5072987;28;20493;-49
2022/07/29 05:28:47;;;;;;;4.93;3.50;;;18.50;87.80;;;;;;5072310;28;20491;-49
2022/07/29 05:31:15;;;;;;;5.77;3.50;;;18.40;86.60;;;;;;5072796;28;20527;-49
2022/07/29 05:33:41;;;;;;;8.50;3.63;;;18.30;86.20;;;;;;5072703;28;20481;-48
2022/07/29 05:36:28;;;;;;;7.57;3.27;;;18.20;86.30;;;;;;5073344;28;20434;-48
2022/07/29 05:38:54;;;;;;;7.30;3.23;;;18.50;85.30;;;;;;5072181;28;20451;-49
2022/07/29 05:41:21;;;;;;;5.87;3.40;;;18.40;85.90;;;;;;5072452;28;20432;-48
2022/07/29 05:43:48;;;;;;;4.97;2.80;;;19.00;86.20;;;;;;5072546;28;20494;-49
2022/07/29 05:46:14;;;;;;;8.63;3.63;;;18.60;84.90;;;;;;5072570;28;20443;-49
2022/07/29 05:48:41;;;;;;;8.30;3.60;;;18.40;84.80;;;;;;5071614;28;20978;-48
2022/07/29 05:51:08;;;;;;;8.23;4.00;;;19.00;86.00;;;;;;5071266;28;20526;-48
2022/07/29 05:53:37;;;;;;;15.00;4.40;;;18.40;84.70;;;;;;5072604;28;20440;-48
2022/07/29 05:56:05;;;;;;;5.33;3.30;;;18.50;85.50;;;;;;5072601;28;20450;-47
2022/07/29 05:58:31;;;;;;;9.13;3.40;;;18.90;85.20;;;;;;5070509;28;20955;-48
2022/07/29 06:00:58;;;;;;;6.90;3.40;;;19.00;85.80;;;;;;5070816;28;20852;-49
2022/07/29 06:03:25;;;;;;;10.43;3.60;;;18.70;84.70;;;;;;5072319;28;20518;-48
2022/07/29 06:05:52;;;;;;;8.60;3.73;;;;;;;;;;5072224;28;20434;-48
2022/07/29 06:08:19;;;;;;;7.80;3.77;;;18.70;84.30;;;;;;5071893;28;20474;-48
2022/07/29 06:10:47;;;;;;;4.90;3.47;;;18.80;84.40;;;;;;5071604;28;20428;-48
2022/07/29 06:13:15;;;;;;;10.50;3.90;;;18.50;84.50;;;;;;5071877;28;20489;-48
2022/07/29 06:15:42;;;;;;;4.73;3.40;;;19.50;85.20;;;;;;5070364;28;20449;-49
2022/07/29 06:18:09;;;;;;;9.90;3.73;;;19.20;83.50;;;;;;5071622;28;20438;-50
2022/07/29 06:20:36;;;;;;;8.00;4.00;;;19.40;83.60;;;;;;5071656;28;20976;-50
2022/07/29 06:23:04;;;;;;;8.17;3.70;;;19.50;82.90;;;;;;5071576;28;20439;-50
2022/07/29 06:25:32;;;;;;;13.93;4.40;;;19.80;82.30;;;;;;5071977;28;20778;-50
2022/07/29 06:28:00;;;;;;;5.77;3.50;;;19.60;82.10;;;;;;5071399;28;20909;-50
2022/07/29 06:30:28;;;;;;;5.83;3.53;;;;;;;;;;5071034;28;20819;-50
2022/07/29 06:32:55;;;;;;;8.77;3.07;;;20.30;80.60;;;;;;5071539;28;20447;-48
2022/07/29 06:35:22;;;;;;;12.20;3.33;;;20.40;80.00;;;;;;5071250;28;20436;-50
2022/07/29 06:37:48;;;;;;;9.63;4.10;;;20.60;79.50;;;;;;5071240;28;20477;-49
2022/07/29 06:43:00;;;;;;;6.43;3.27;;;20.70;78.70;;;;;;5071061;28;21090;-49
2022/07/29 06:45:27;;;;;;;5.83;3.00;;;20.70;78.50;;;;;;5071483;28;20480;-48
2022/07/29 06:47:54;;;;;;;9.17;3.80;;;20.60;78.30;;;;;;5070700;28;20441;-48
2022/07/29 06:50:21;;;;;;;7.60;3.10;;;20.70;77.40;;;;;;5069277;28;20473;-49
2022/07/29 06:52:48;;;;;;;8.03;3.57;;;20.40;78.40;;;;;;5071318;28;20441;-48
2022/07/29 06:55:14;;;;;;;8.00;3.00;;;20.70;78.10;;;;;;5070945;28;20445;-49
2022/07/29 06:57:41;;;;;;;17.63;5.07;;;20.90;78.80;;;;;;5071172;28;20447;-51
2022/07/29 07:00:11;;;;;;;6.80;3.27;;;20.70;77.70;;;;;;5070868;28;20446;-50
2022/07/29 07:02:38;;;;;;;4.93;2.83;;;20.70;77.60;;;;;;5071425;28;20449;-49
2022/07/29 07:05:06;;;;;;;6.90;2.77;;;20.80;78.30;;;;;;5071519;28;20962;-50
2022/07/29 07:07:32;;;;;;;13.67;3.63;;;20.80;78.00;;;;;;5070935;28;20439;-49
2022/07/29 07:09:59;;;;;;;11.13;3.40;;;20.70;77.00;;;;;;5070612;28;20508;-49
2022/07/29 07:12:25;;;;;;;8.07;3.13;;;21.30;78.00;;;;;;5070756;28;20435;-49
2022/07/29 07:14:52;;;;;;;6.40;2.70;;;20.80;76.50;;;;;;5071047;28;20449;-49
2022/07/29 07:17:20;;;;;;;5.50;3.83;;;21.40;77.50;;;;;;5069782;28;20446;-50
2022/07/29 07:19:46;;;;;;;6.00;3.03;;;21.00;75.90;;;;;;5070486;28;20457;-50
2022/07/29 07:22:13;;;;;;;14.50;3.77;;;21.30;75.30;;;;;;5071082;28;20985;-50
2022/07/29 07:24:40;;;;;;;6.43;2.70;;;21.50;75.00;;;;;;5071228;28;20447;-49
2022/07/29 07:27:06;;;;;;;9.40;3.80;;;21.40;74.50;;;;;;5070819;28;20439;-49
2022/07/29 07:29:33;;;;;;;8.10;3.27;;;21.80;74.60;;;;;;5070255;28;20853;-49
2022/07/29 07:32:00;;;;;;;9.03;3.10;;;21.50;74.60;;;;;;5070816;28;20467;-49
2022/07/29 07:34:28;;;;;;;9.47;3.00;;;21.50;74.40;;;;;;5071446;28;20461;-48
2022/07/29 07:36:54;;;;;;;18.80;2.90;;;21.70;74.70;;;;;;5074599;28;20928;-50
2022/07/29 07:39:21;;;;;;;7.03;2.60;;;21.60;73.50;;;;;;5074614;28;20966;-50
2022/07/29 07:41:48;;;;;;;10.63;3.10;;;;;;;;;;5074729;28;20435;-49
2022/07/29 07:44:15;;;;;;;7.07;2.87;;;21.60;73.60;;;;;;5074613;28;20449;-49
2022/07/29 07:46:41;;;;;;;8.73;3.20;;;21.90;74.70;;;;;;5074211;28;20438;-48
2022/07/29 07:49:08;;;;;;;8.13;3.20;;;21.60;73.60;;;;;;5074216;28;20499;-49
2022/07/29 07:51:35;;;;;;;7.30;2.70;;;21.80;73.50;;;;;;5074356;28;20571;-49
2022/07/29 07:54:02;;;;;;;7.60;2.50;;;21.60;73.70;;;;;;5074247;28;20439;-49
2022/07/29 07:56:29;;;;;;;5.83;2.83;;;21.30;72.90;;;;;;5074378;28;20446;-49
2022/07/29 07:58:55;;;;;;;9.23;2.83;;;21.80;73.50;;;;;;5073822;28;20462;-50
2022/07/29 08:01:22;;;;;;;3.43;1.93;;;21.70;72.10;;;;;;5074633;28;20453;-49
2022/07/29 08:03:49;;;;;;;7.13;2.23;;;21.40;71.10;;;;;;5074605;28;20447;-49
2022/07/29 08:06:16;;;;;;;6.70;2.80;;;21.80;70.60;;;;;;5074057;28;20432;-49
2022/07/29 08:08:44;;;;;;;10.37;3.60;;;21.70;70.50;;;;;;5073863;28;20487;-51
2022/07/29 08:11:11;;;;;;;14.13;2.23;;;21.90;70.40;;;;;;5073925;28;20472;-47
2022/07/29 08:13:39;;;;;;;5.23;2.43;;;21.70;70.30;;;;;;5073888;28;20434;-50
2022/07/29 08:16:12;;;;;;;10.27;2.87;;;21.70;69.50;;;;;;5072339;28;20444;-49
2022/07/29 08:18:41;;;;;;;6.10;2.00;;;22.00;69.80;;;;;;5073382;28;20770;-50
2022/07/29 08:21:08;;;;;;;6.47;2.80;;;;;;;;;;5072049;28;20496;-50
2022/07/29 08:23:38;;;;;;;5.93;2.27;;;21.90;68.40;;;;;;5073769;28;20436;-49
2022/07/29 08:26:10;;;;;;;7.40;2.30;;;22.10;68.20;;;;;;5073953;28;20444;-49
2022/07/29 08:28:37;;;;;;;13.30;3.00;;;22.50;67.90;;;;;;5073007;28;20476;-49
2022/07/29 08:31:03;;;;;;;7.23;2.60;;;22.10;67.90;;;;;;5073366;28;20446;-49
2022/07/29 08:33:30;;;;;;;5.70;2.50;;;22.30;68.60;;;;;;5072686;28;20456;-50
2022/07/29 08:35:59;;;;;;;8.43;2.07;;;22.20;67.10;;;;;;5074116;28;20811;-50
2022/07/29 08:38:27;;;;;;;9.17;2.50;;;22.60;65.60;;;;;;5073075;28;20468;-49
2022/07/29 08:40:53;;;;;;;5.40;2.50;;;22.50;65.50;;;;;;5073794;28;20445;-49
2022/07/29 08:43:40;;;;;;;6.43;3.30;;;22.50;65.30;;;;;;5073958;28;20425;-50
2022/07/29 08:46:13;;;;;;;11.63;3.50;;;22.60;65.50;;;;;;5071899;28;20487;-50
2022/07/29 08:48:42;;;;;;;4.37;2.20;;;22.20;62.20;;;;;;5072755;28;21128;-50
2022/07/29 08:51:13;;;;;;;5.30;2.00;;;22.30;63.10;;;;;;5073332;28;20471;-49
2022/07/29 08:53:41;;;;;;;4.93;2.50;;;;;;;;;;5073507;28;20809;-49
2022/07/29 08:56:11;;;;;;;8.33;2.70;;;22.70;63.30;;;;;;5073772;28;20441;-49
2022/07/29 08:58:40;;;;;;;3.93;2.30;;;22.80;63.40;;;;;;5072877;28;20851;-50
2022/07/29 09:01:08;;;;;;;7.47;2.53;;;22.40;63.80;;;;;;5071624;28;20507;-50
2022/07/29 09:03:38;;;;;;;10.90;2.30;;;22.80;63.70;;;;;;5073072;28;20536;-49
2022/07/29 09:06:06;;;;;;;6.60;2.20;;;22.70;64.00;;;;;;5072066;28;20490;-50
2022/07/29 09:08:33;;;;;;;4.27;2.40;;;22.50;62.50;;;;;;5072592;28;20435;-50
2022/07/29 09:11:03;;;;;;;4.60;2.63;;;22.80;63.00;;;;;;5073137;28;20918;-50
2022/07/29 09:13:29;;;;;;;8.40;2.40;;;22.80;62.60;;;;;;5073097;28;20441;-50
2022/07/29 09:15:57;;;;;;;6.03;2.20;;;22.90;62.60;;;;;;5072969;28;20949;-50
2022/07/29 09:18:38;;;;;;;5.97;2.80;;;23.00;62.10;;;;;;5072600;28;20464;-49
2022/07/29 09:24:01;;;;;;;10.97;3.10;;;23.10;62.50;;;;;;5072797;28;20944;-49
2022/07/29 09:26:29;;;;;;;5.00;1.90;;;23.30;61.20;;;;;;5072638;28;20446;-49
2022/07/29 09:28:56;;;;;;;7.40;2.57;;;23.40;59.60;;;;;;5091846;22;20596;-47
2022/07/29 09:31:33;;;;;;;3.37;2.40;;;23.40;60.90;;;;;;5073468;28;20956;-46
2022/07/29 09:34:00;;;;;;;5.53;2.63;;;23.40;60.00;;;;;;5073238;28;20480;-45
2022/07/29 09:36:27;;;;;;;3.73;2.27;;;23.30;59.90;;;;;;5072934;28;20483;-47
2022/07/29 09:38:59;;;;;;;4.27;2.73;;;23.40;60.00;;;;;;5071120;28;20451;-46
2022/07/29 09:41:26;;;;;;;6.47;2.60;;;23.50;59.90;;;;;;5072226;28;20442;-46
2022/07/29 09:43:56;;;;;;;4.97;2.47;;;23.60;59.80;;;;;;5072513;28;20788;-45
2022/07/29 09:46:25;;;;;;;3.07;2.40;;;23.20;59.20;;;;;;5074068;28;20996;-47
2022/07/29 09:51:45;;;;;;;11.20;2.70;;;23.80;57.90;;;;;;5090071;28;20534;-46
2022/07/29 09:54:26;;;;;;;6.20;2.40;;;23.90;58.00;;;;;;5089560;28;20435;-46
2022/07/29 09:56:54;;;;;;;4.00;2.00;;;23.60;57.80;;;;;;5089971;28;20529;-48
2022/07/29 09:59:26;;;;;;;6.40;2.10;;;24.20;58.30;;;;;;5089083;28;20455;-46
2022/07/29 10:01:53;;;;;;;5.30;2.17;;;24.30;58.10;;;;;;5090045;28;20436;-46
2022/07/29 10:04:20;;;;;;;2.90;2.00;;;24.30;57.60;;;;;;5090727;28;20444;-46
2022/07/29 10:06:59;;;;;;;3.33;2.00;;;24.60;57.10;;;;;;5089255;28;20446;-47
2022/07/29 10:09:25;;;;;;;5.87;2.03;;;24.60;56.10;;;;;;5088672;28;20459;-47
2022/07/29 10:12:10;;;;;;;3.97;2.00;;;24.50;55.80;;;;;;5088551;28;20442;-48
2022/07/29 10:14:38;;;;;;;9.60;2.50;;;25.10;54.50;;;;;;5088242;28;20440;-47
2022/07/29 10:17:06;;;;;;;5.27;2.20;;;24.90;54.50;;;;;;5088365;28;20428;-47
2022/07/29 10:19:34;;;;;;;10.27;1.90;;;25.30;54.30;;;;;;5087622;28;20971;-46
2022/07/29 10:22:05;;;;;;;3.20;1.90;;;25.30;53.40;;;;;;5088309;28;20428;-46
2022/07/29 10:24:34;;;;;;;2.83;1.60;;;25.30;52.80;;;;;;5088231;28;20922;-47
2022/07/29 10:27:02;;;;;;;9.70;2.07;;;25.20;52.50;;;;;;5087987;28;20936;-48
2022/07/29 10:29:31;;;;;;;3.40;1.80;;;25.10;52.90;;;;;;5087080;28;20483;-47
2022/07/29 10:32:27;;;;;;;4.93;2.00;;;25.20;53.00;;;;;;5088045;28;20493;-47
2022/07/29 10:35:10;;;;;;;5.53;1.93;;;25.20;52.40;;;;;;5088599;28;20439;-48
2022/07/29 10:37:55;;;;;;;3.30;1.70;;;24.90;52.10;;;;;;5072536;28;20942;-48
2022/07/29 10:43:20;;;;;;;5.60;2.80;;;25.20;52.10;;;;;;5067842;28;20631;-48
2022/07/29 10:45:49;;;;;;;6.10;2.30;;;24.90;52.40;;;;;;5067776;28;20452;-47
2022/07/29 10:48:16;;;;;;;2.60;1.90;;;24.80;52.30;;;;;;5068040;28;20437;-47
2022/07/29 10:50:57;;;;;;;4.50;1.70;;;25.10;52.50;;;;;;5066612;28;20488;-47
2022/07/29 10:53:25;;;;;;;5.10;2.00;;;25.00;52.20;;;;;;5067911;28;20444;-47
2022/07/29 10:55:53;;;;;;;3.00;1.87;;;25.20;52.00;;;;;;5067736;28;20449;-47
2022/07/29 10:58:21;;;;;;;3.33;1.70;;;25.40;52.10;;;;;;5067858;28;20478;-47
2022/07/29 11:00:49;;;;;;;6.17;1.60;;;25.60;51.80;;;;;;5065628;28;20814;-47
2022/07/29 11:03:43;;;;;;;5.37;2.33;;;25.70;51.20;;;;;;5052544;28;20426;-47
2022/07/29 11:06:10;;;;;;;6.43;2.10;;;25.90;51.20;;;;;;5045658;28;20820;-47
2022/07/29 11:08:38;;;;;;;5.37;2.30;;;26.00;51.30;;;;;;5053742;28;20549;-46
2022/07/29 11:11:31;;;;;;;5.10;2.40;;;26.10;51.20;;;;;;5053858;28;20936;-47
2022/07/29 11:13:58;;;;;;;5.70;2.43;;;26.20;50.20;;;;;;5047724;28;20823;-48
2022/07/29 11:16:25;;;;;;;3.53;2.13;;;26.10;50.30;;;;;;5054118;28;20485;-46
2022/07/29 11:19:20;;;;;;;3.67;2.50;;;26.30;50.00;;;;;;5054036;28;20447;-48
2022/07/29 11:21:49;;;;;;;2.93;1.93;;;26.40;50.40;;;;;;5054108;28;20527;-47
2022/07/29 11:24:20;;;;;;;17.83;2.33;;;26.30;50.60;;;;;;5053894;28;20430;-47
2022/07/29 11:27:13;;;;;;;6.50;2.00;;;26.20;51.20;;;;;;5054298;28;20528;-47
2022/07/29 11:29:48;;;;;;;4.90;2.50;;;26.30;50.80;;;;;;5053866;28;20989;-48
2022/07/29 11:32:17;;;;;;;4.73;2.77;;;26.30;51.00;;;;;;5054208;28;20484;-47
2022/07/29 11:34:44;;;;;;;5.17;2.53;;;26.00;50.90;;;;;;5054206;28;21018;-47
2022/07/29 11:37:20;;;;;;;3.70;2.47;;;26.30;51.00;;;;;;5054182;28;21029;-48
2022/07/29 11:40:08;;;;;;;4.37;2.70;;;26.30;51.10;;;;;;5053623;28;20505;-46
2022/07/29 11:42:39;;;;;;;4.30;2.10;;;26.40;51.30;;;;;;5054010;28;20478;-48
2022/07/29 11:45:08;;;;;;;3.47;2.93;;;26.50;51.20;;;;;;5054137;28;20504;-47
2022/07/29 11:47:37;;;;;;;6.53;2.77;;;26.50;51.50;;;;;;5053846;28;20433;-47
2022/07/29 11:50:06;;;;;;;3.77;2.47;;;26.40;51.80;;;;;;5053913;28;20466;-46
2022/07/29 11:52:36;;;;;;;6.10;2.10;;;26.40;52.60;;;;;;5053931;28;20442;-48
2022/07/29 11:55:07;;;;;;;8.47;2.23;;;26.30;52.10;;;;;;5053882;28;20438;-46
2022/07/29 11:57:35;;;;;;;3.50;2.93;;;26.20;52.10;;;;;;5053471;28;20476;-45
2022/07/29 12:00:03;;;;;;;5.27;2.30;;;26.20;52.30;;;;;;5053232;28;20450;-46
2022/07/29 12:02:41;;;;;;;5.83;2.70;;;26.20;52.60;;;;;;5053525;28;20441;-46
2022/07/29 12:05:09;;;;;;;6.80;2.40;;;26.20;53.10;;;;;;5053520;28;20435;-47
2022/07/29 12:07:36;;;;;;;6.70;2.53;;;25.80;53.40;;;;;;5053438;28;20923;-47
2022/07/29 12:10:05;;;;;;;11.00;2.70;;;26.20;53.80;;;;;;5052734;28;20565;-47
2022/07/29 12:12:32;;;;;;;5.73;2.43;;;26.20;54.20;;;;;;5052910;28;20508;-46
2022/07/29 12:14:59;;;;;;;6.00;2.73;;;26.10;54.20;;;;;;5050588;28;20458;-47
2022/07/29 12:17:29;;;;;;;6.00;2.60;;;26.10;54.50;;;;;;5053135;28;20439;-47
2022/07/29 12:19:57;;;;;;;4.57;3.93;;;25.80;54.80;;;;;;5052645;28;20455;-47
2022/07/29 12:22:27;;;;;;;3.80;2.87;;;26.10;55.40;;;;;;5052698;28;20802;-47
2022/07/29 12:24:54;;;;;;;6.60;3.60;;;28.00;56.90;;;;;;5052714;28;20436;-47
2022/07/29 12:27:22;;;;;;;5.80;3.10;;;26.00;56.10;;;;;;5052625;28;20731;-47
2022/07/29 12:29:57;;;;;;;7.10;2.93;;;26.10;56.40;;;;;;5052196;28;20469;-47
2022/07/29 12:32:24;;;;;;;3.73;3.30;;;25.90;56.50;;;;;;5052593;28;20863;-47
2022/07/29 12:34:51;;;;;;;8.27;3.60;;;26.10;56.90;;;;;;5052820;28;20466;-46
2022/07/29 12:37:18;;;;;;;4.20;3.03;;;26.00;56.80;;;;;;5052549;28;20525;-49
2022/07/29 12:39:45;;;;;;;5.73;3.83;;;26.00;56.80;;;;;;5052348;28;20454;-48
2022/07/29 12:42:13;;;;;;;4.03;2.77;;;26.00;56.70;;;;;;5052250;28;20471;-47
2022/07/29 12:44:49;;;;;;;6.93;3.30;;;26.20;56.50;;;;;;5052525;28;20441;-48
2022/07/29 12:47:16;;;;;;;7.43;3.33;;;26.80;56.80;;;;;;5052066;28;20806;-49
2022/07/29 12:49:42;;;;;;;4.80;2.50;;;26.20;56.40;;;;;;5052063;28;20474;-47
2022/07/29 12:52:25;;;;;;;6.60;2.87;;;26.20;56.50;;;;;;5052405;28;20486;-47
2022/07/29 12:54:51;;;;;;;4.80;3.20;;;26.00;56.60;;;;;;5051264;28;20481;-48
2022/07/29 12:57:18;;;;;;;5.20;3.47;;;26.40;56.50;;;;;;5052158;28;20527;-48
2022/07/29 12:59:58;;;;;;;5.13;3.40;;;26.40;56.40;;;;;;5051693;28;20458;-47
2022/07/29 13:02:25;;;;;;;9.20;2.77;;;26.30;56.40;;;;;;5052212;28;20434;-48
2022/07/29 13:04:56;;;;;;;7.20;3.20;;;26.30;56.40;;;;;;5052045;28;20437;-48
2022/07/29 13:07:26;;;;;;;5.20;2.93;;;26.00;56.00;;;;;;5051812;28;20492;-47
2022/07/29 13:09:52;;;;;;;5.33;3.07;;;26.40;56.20;;;;;;5051554;28;20457;-46
2022/07/29 13:12:20;;;;;;;7.80;3.17;;;26.20;56.10;;;;;;5051560;28;20466;-48